createdAt,value
2017-08-29T00:00:47.329Z,17.06
2017-08-29T00:01:47.290Z,17.07
2017-08-29T00:02:47.283Z,17.1
2017-08-29T00:03:47.790Z,17.08
2017-08-29T00:04:47.259Z,17.06
2017-08-29T00:05:46.923Z,17.07
2017-08-29T00:06:47.560Z,17.13
2017-08-29T00:07:46.907Z,17.1
2017-08-29T00:08:47.215Z,17.06
2017-08-29T00:09:46.880Z,17.03
2017-08-29T00:10:47.193Z,17.08
2017-08-29T00:11:47.180Z,17.08
2017-08-29T00:12:47.493Z,17
2017-08-29T00:13:47.510Z,17.03
2017-08-29T00:14:47.472Z,17.08
2017-08-29T00:15:46.819Z,17.06
2017-08-29T00:16:47.448Z,17.1
2017-08-29T00:17:47.437Z,17.03
2017-08-29T00:18:47.107Z,16.98
2017-08-29T00:19:47.418Z,17.13
2017-08-29T00:20:47.408Z,16.95
2017-08-29T00:21:47.432Z,17.03
2017-08-29T00:22:47.067Z,17.06
2017-08-29T00:23:47.081Z,17.04
2017-08-29T00:24:46.721Z,17.06
2017-08-29T00:25:46.713Z,17.03
2017-08-29T00:26:47.351Z,16.98
2017-08-29T00:27:46.690Z,17.06
2017-08-29T00:28:46.681Z,17.1
2017-08-29T00:29:46.673Z,16.93
2017-08-29T00:30:46.980Z,17.03
2017-08-29T00:31:46.652Z,17
2017-08-29T00:32:46.640Z,16.99
2017-08-29T00:33:46.944Z,17.07
2017-08-29T00:34:46.944Z,16.99
2017-08-29T00:35:46.966Z,17.07
2017-08-29T00:36:46.920Z,16.99
2017-08-29T00:37:47.233Z,17.06
2017-08-29T00:38:47.219Z,17.04
2017-08-29T00:39:47.205Z,17
2017-08-29T00:40:46.873Z,17.08
2017-08-29T00:41:47.182Z,17.07
2017-08-29T00:42:46.853Z,17
2017-08-29T00:43:46.524Z,16.99
2017-08-29T00:44:47.155Z,17
2017-08-29T00:45:46.819Z,17.08
2017-08-29T00:46:46.493Z,17
2017-08-29T00:47:46.799Z,17.03
2017-08-29T00:48:46.790Z,17.06
2017-08-29T00:49:46.812Z,16.96
2017-08-29T00:50:47.114Z,17.04
2017-08-29T00:51:46.778Z,17.08
2017-08-29T00:52:46.761Z,17.04
2017-08-29T00:53:46.737Z,17.07
2017-08-29T00:54:46.725Z,17.06
2017-08-29T00:55:46.393Z,17.08
2017-08-29T00:56:47.023Z,17
2017-08-29T00:57:46.742Z,16.99
2017-08-29T00:58:46.362Z,16.96
2017-08-29T00:59:46.669Z,17.06
2017-08-29T01:00:46.338Z,16.92
2017-08-29T01:01:46.650Z,16.92
2017-08-29T01:02:46.976Z,17.04
2017-08-29T01:03:46.307Z,16.96
2017-08-29T01:04:46.620Z,16.93
2017-08-29T01:05:46.927Z,16.99
2017-08-29T01:06:46.917Z,17.07
2017-08-29T01:07:46.913Z,16.98
2017-08-29T01:08:46.264Z,16.93
2017-08-29T01:09:46.573Z,16.93
2017-08-29T01:10:46.239Z,16.96
2017-08-29T01:11:46.871Z,16.93
2017-08-29T01:12:46.539Z,16.96
2017-08-29T01:13:46.843Z,16.96
2017-08-29T01:14:46.512Z,16.93
2017-08-29T01:15:46.821Z,16.93
2017-08-29T01:16:46.814Z,16.96
2017-08-29T01:17:46.488Z,16.93
2017-08-29T01:18:46.150Z,16.92
2017-08-29T01:19:46.459Z,16.92
2017-08-29T01:20:46.446Z,16.95
2017-08-29T01:21:46.437Z,16.93
2017-08-29T01:22:46.748Z,16.96
2017-08-29T01:23:46.414Z,16.88
2017-08-29T01:24:46.404Z,16.92
2017-08-29T01:25:46.391Z,16.95
2017-08-29T01:26:46.385Z,16.89
2017-08-29T01:27:46.371Z,16.95
2017-08-29T01:28:46.364Z,16.88
2017-08-29T01:29:46.350Z,16.89
2017-08-29T01:30:46.021Z,16.9
2017-08-29T01:31:46.328Z,16.89
2017-08-29T01:32:46.000Z,16.83
2017-08-29T01:33:46.308Z,16.86
2017-08-29T01:34:46.296Z,16.89
2017-08-29T01:35:46.605Z,16.92
2017-08-29T01:36:45.956Z,16.92
2017-08-29T01:37:46.590Z,16.89
2017-08-29T01:38:45.935Z,16.8
2017-08-29T01:39:46.245Z,16.85
2017-08-29T01:40:46.232Z,16.88
2017-08-29T01:41:46.223Z,16.88
2017-08-29T01:42:46.211Z,16.88
2017-08-29T01:43:46.202Z,16.89
2017-08-29T01:44:46.514Z,16.85
2017-08-29T01:45:45.855Z,16.88
2017-08-29T01:46:46.170Z,16.9
2017-08-29T01:47:45.833Z,16.78
2017-08-29T01:48:46.146Z,16.8
2017-08-29T01:49:45.813Z,16.77
2017-08-29T01:50:46.450Z,16.77
2017-08-29T01:51:46.114Z,16.83
2017-08-29T01:52:46.130Z,16.81
2017-08-29T01:53:46.093Z,16.77
2017-08-29T01:54:46.089Z,16.81
2017-08-29T01:55:46.075Z,16.81
2017-08-29T01:56:46.067Z,16.88
2017-08-29T01:57:46.369Z,16.78
2017-08-29T01:58:46.048Z,16.86
2017-08-29T01:59:45.707Z,16.86
2017-08-29T02:00:46.018Z,16.8
2017-08-29T02:01:45.687Z,16.83
2017-08-29T02:02:46.007Z,16.83
2017-08-29T02:03:46.186Z,16.78
2017-08-29T02:04:45.656Z,16.89
2017-08-29T02:05:45.974Z,16.88
2017-08-29T02:06:46.278Z,16.83
2017-08-29T02:07:46.268Z,16.86
2017-08-29T02:08:45.931Z,16.85
2017-08-29T02:09:46.240Z,16.8
2017-08-29T02:10:45.933Z,16.81
2017-08-29T02:11:46.228Z,16.78
2017-08-29T02:12:45.889Z,16.78
2017-08-29T02:13:45.879Z,16.8
2017-08-29T02:14:46.186Z,16.81
2017-08-29T02:15:45.854Z,16.81
2017-08-29T02:16:46.167Z,16.88
2017-08-29T02:17:45.518Z,16.86
2017-08-29T02:18:45.834Z,16.85
2017-08-29T02:19:45.844Z,16.8
2017-08-29T02:20:46.125Z,16.78
2017-08-29T02:21:45.791Z,16.89
2017-08-29T02:22:45.780Z,16.85
2017-08-29T02:23:45.774Z,16.81
2017-08-29T02:24:45.760Z,16.81
2017-08-29T02:25:45.752Z,16.85
2017-08-29T02:26:46.062Z,16.89
2017-08-29T02:27:46.051Z,16.86
2017-08-29T02:28:46.036Z,16.81
2017-08-29T02:29:45.389Z,16.93
2017-08-29T02:30:45.717Z,16.77
2017-08-29T02:31:45.697Z,16.78
2017-08-29T02:32:45.360Z,16.86
2017-08-29T02:33:45.988Z,16.78
2017-08-29T02:34:45.668Z,16.78
2017-08-29T02:35:45.963Z,16.8
2017-08-29T02:36:45.957Z,16.85
2017-08-29T02:37:45.943Z,16.77
2017-08-29T02:38:45.613Z,16.75
2017-08-29T02:39:45.602Z,16.77
2017-08-29T02:40:45.908Z,16.75
2017-08-29T02:41:45.897Z,16.81
2017-08-29T02:42:45.891Z,16.78
2017-08-29T02:43:45.563Z,16.89
2017-08-29T02:44:45.227Z,16.86
2017-08-29T02:45:45.856Z,16.65
2017-08-29T02:46:45.849Z,16.73
2017-08-29T02:47:45.514Z,16.67
2017-08-29T02:48:45.833Z,16.78
2017-08-29T02:49:45.490Z,16.83
2017-08-29T02:50:45.802Z,16.88
2017-08-29T02:51:45.825Z,16.7
2017-08-29T02:52:45.460Z,16.73
2017-08-29T02:53:45.445Z,16.74
2017-08-29T02:54:45.442Z,16.74
2017-08-29T02:55:45.425Z,16.74
2017-08-29T02:56:45.103Z,16.78
2017-08-29T02:57:45.403Z,16.73
2017-08-29T02:58:45.394Z,16.74
2017-08-29T02:59:45.060Z,16.71
2017-08-29T03:00:45.371Z,16.71
2017-08-29T03:01:45.040Z,16.71
2017-08-29T03:02:45.353Z,16.71
2017-08-29T03:03:45.339Z,16.73
2017-08-29T03:04:45.324Z,16.73
2017-08-29T03:05:44.989Z,16.77
2017-08-29T03:06:45.305Z,16.71
2017-08-29T03:07:45.300Z,16.68
2017-08-29T03:08:44.961Z,16.71
2017-08-29T03:09:45.642Z,16.77
2017-08-29T03:10:44.937Z,16.71
2017-08-29T03:11:44.947Z,16.7
2017-08-29T03:12:45.274Z,16.73
2017-08-29T03:13:45.227Z,16.68
2017-08-29T03:14:45.218Z,16.74
2017-08-29T03:15:45.211Z,16.73
2017-08-29T03:16:44.874Z,16.73
2017-08-29T03:17:44.878Z,16.67
2017-08-29T03:18:45.532Z,16.74
2017-08-29T03:19:45.492Z,16.7
2017-08-29T03:20:45.157Z,16.67
2017-08-29T03:21:45.468Z,16.71
2017-08-29T03:22:44.809Z,16.68
2017-08-29T03:23:45.436Z,16.59
2017-08-29T03:24:44.786Z,16.62
2017-08-29T03:25:45.414Z,16.62
2017-08-29T03:26:44.763Z,16.74
2017-08-29T03:27:45.396Z,16.71
2017-08-29T03:28:44.744Z,16.56
2017-08-29T03:29:45.061Z,16.67
2017-08-29T03:30:44.725Z,16.6
2017-08-29T03:31:45.034Z,16.65
2017-08-29T03:32:45.025Z,16.59
2017-08-29T03:33:45.013Z,16.56
2017-08-29T03:34:45.004Z,16.55
2017-08-29T03:35:44.672Z,16.6
2017-08-29T03:36:45.295Z,16.62
2017-08-29T03:37:44.962Z,16.53
2017-08-29T03:38:44.957Z,16.49
2017-08-29T03:39:44.622Z,16.52
2017-08-29T03:40:44.976Z,16.5
2017-08-29T03:41:45.244Z,16.48
2017-08-29T03:42:44.913Z,16.53
2017-08-29T03:43:44.576Z,16.49
2017-08-29T03:44:45.206Z,16.5
2017-08-29T03:45:44.875Z,16.49
2017-08-29T03:46:44.869Z,16.48
2017-08-29T03:47:44.858Z,16.42
2017-08-29T03:48:44.850Z,16.49
2017-08-29T03:49:44.832Z,16.52
2017-08-29T03:50:45.155Z,16.41
2017-08-29T03:51:44.810Z,16.45
2017-08-29T03:52:45.122Z,16.5
2017-08-29T03:53:45.111Z,16.35
2017-08-29T03:54:44.784Z,16.5
2017-08-29T03:55:44.477Z,16.5
2017-08-29T03:56:44.769Z,16.42
2017-08-29T03:57:44.753Z,16.44
2017-08-29T03:58:45.064Z,16.37
2017-08-29T03:59:44.736Z,16.48
2017-08-29T04:00:44.396Z,16.34
2017-08-29T04:01:44.702Z,16.44
2017-08-29T04:02:44.689Z,16.48
2017-08-29T04:03:44.885Z,16.4
2017-08-29T04:04:44.670Z,16.37
2017-08-29T04:05:44.338Z,16.48
2017-08-29T04:06:44.990Z,16.38
2017-08-29T04:07:44.316Z,16.38
2017-08-29T04:08:44.623Z,16.33
2017-08-29T04:09:44.933Z,16.41
2017-08-29T04:10:44.600Z,16.38
2017-08-29T04:11:44.269Z,16.37
2017-08-29T04:12:44.626Z,16.35
2017-08-29T04:13:44.566Z,16.35
2017-08-29T04:14:44.558Z,16.38
2017-08-29T04:15:44.549Z,16.38
2017-08-29T04:16:44.538Z,16.48
2017-08-29T04:17:44.841Z,16.37
2017-08-29T04:18:44.834Z,16.37
2017-08-29T04:19:44.498Z,16.34
2017-08-29T04:20:44.491Z,16.31
2017-08-29T04:21:44.833Z,16.34
2017-08-29T04:22:44.143Z,16.3
2017-08-29T04:23:44.784Z,16.4
2017-08-29T04:24:44.442Z,16.3
2017-08-29T04:25:44.839Z,16.25
2017-08-29T04:26:44.424Z,16.33
2017-08-29T04:27:44.409Z,16.3
2017-08-29T04:28:44.719Z,16.34
2017-08-29T04:29:44.390Z,16.22
2017-08-29T04:30:44.380Z,16.23
2017-08-29T04:31:44.047Z,16.33
2017-08-29T04:32:44.358Z,16.27
2017-08-29T04:33:44.344Z,16.25
2017-08-29T04:34:44.337Z,16.22
2017-08-29T04:35:44.339Z,16.27
2017-08-29T04:36:44.634Z,16.27
2017-08-29T04:37:44.301Z,16.26
2017-08-29T04:38:44.294Z,16.26
2017-08-29T04:39:44.281Z,16.23
2017-08-29T04:40:43.943Z,16.25
2017-08-29T04:41:43.935Z,16.23
2017-08-29T04:42:43.921Z,16.26
2017-08-29T04:43:44.551Z,16.27
2017-08-29T04:44:44.218Z,16.3
2017-08-29T04:45:44.209Z,16.23
2017-08-29T04:46:44.198Z,16.26
2017-08-29T04:47:43.863Z,16.27
2017-08-29T04:48:44.175Z,16.31
2017-08-29T04:49:43.846Z,16.26
2017-08-29T04:50:44.473Z,16.23
2017-08-29T04:51:44.142Z,16.25
2017-08-29T04:52:44.131Z,16.26
2017-08-29T04:53:43.801Z,16.31
2017-08-29T04:54:44.105Z,16.26
2017-08-29T04:55:43.775Z,16.22
2017-08-29T04:56:44.088Z,16.14
2017-08-29T04:57:44.073Z,16.15
2017-08-29T04:58:44.070Z,16.18
2017-08-29T04:59:43.728Z,16.15
2017-08-29T05:00:44.037Z,16.12
2017-08-29T05:01:44.024Z,16.15
2017-08-29T05:02:43.738Z,16.15
2017-08-29T05:03:44.009Z,16.2
2017-08-29T05:04:44.316Z,16.15
2017-08-29T05:05:44.308Z,16.12
2017-08-29T05:06:43.969Z,16.26
2017-08-29T05:07:43.964Z,16.22
2017-08-29T05:08:43.949Z,16.25
2017-08-29T05:09:44.267Z,16.2
2017-08-29T05:10:44.249Z,16.2
2017-08-29T05:11:43.596Z,16.23
2017-08-29T05:12:44.222Z,16.3
2017-08-29T05:13:43.890Z,16.27
2017-08-29T05:14:44.202Z,16.31
2017-08-29T05:15:43.870Z,16.3
2017-08-29T05:16:43.540Z,16.3
2017-08-29T05:17:43.846Z,16.38
2017-08-29T05:18:43.834Z,16.35
2017-08-29T05:19:44.147Z,16.41
2017-08-29T05:20:43.497Z,16.37
2017-08-29T05:21:43.489Z,16.42
2017-08-29T05:22:43.472Z,16.35
2017-08-29T05:23:43.782Z,16.48
2017-08-29T05:24:43.771Z,16.49
2017-08-29T05:25:43.769Z,16.44
2017-08-29T05:26:43.743Z,16.5
2017-08-29T05:27:44.060Z,16.53
2017-08-29T05:28:43.405Z,16.55
2017-08-29T05:29:43.395Z,16.5
2017-08-29T05:30:44.026Z,16.59
2017-08-29T05:31:43.369Z,16.5
2017-08-29T05:32:44.002Z,16.59
2017-08-29T05:33:43.674Z,16.62
2017-08-29T05:34:43.661Z,16.63
2017-08-29T05:35:43.642Z,16.74
2017-08-29T05:36:43.962Z,16.73
2017-08-29T05:37:43.944Z,16.73
2017-08-29T05:38:43.614Z,16.74
2017-08-29T05:39:43.923Z,16.74
2017-08-29T05:40:43.269Z,16.77
2017-08-29T05:41:43.581Z,16.85
2017-08-29T05:42:43.565Z,16.77
2017-08-29T05:43:43.873Z,16.73
2017-08-29T05:44:43.548Z,16.83
2017-08-29T05:45:43.534Z,16.8
2017-08-29T05:46:43.201Z,16.95
2017-08-29T05:47:43.519Z,16.88
2017-08-29T05:48:43.182Z,16.86
2017-08-29T05:49:43.490Z,17
2017-08-29T05:50:43.803Z,16.93
2017-08-29T05:51:43.471Z,16.92
2017-08-29T05:52:43.457Z,17
2017-08-29T05:53:43.782Z,17.06
2017-08-29T05:54:43.433Z,17.04
2017-08-29T05:55:43.427Z,16.95
2017-08-29T05:56:43.417Z,17.07
2017-08-29T05:57:43.731Z,17.11
2017-08-29T05:58:43.394Z,17.08
2017-08-29T05:59:43.382Z,17.14
2017-08-29T06:00:43.694Z,17.2
2017-08-29T06:01:43.360Z,17.2
2017-08-29T06:02:43.671Z,17.22
2017-08-29T06:03:43.685Z,17.22
2017-08-29T06:04:43.848Z,17.32
2017-08-29T06:05:43.318Z,17.26
2017-08-29T06:06:43.631Z,17.41
2017-08-29T06:07:43.623Z,17.36
2017-08-29T06:08:43.611Z,17.55
2017-08-29T06:09:43.600Z,17.53
2017-08-29T06:10:43.585Z,17.44
2017-08-29T06:11:43.251Z,17.53
2017-08-29T06:12:43.564Z,17.54
2017-08-29T06:13:43.233Z,17.66
2017-08-29T06:14:42.903Z,17.66
2017-08-29T06:15:43.213Z,17.64
2017-08-29T06:16:43.522Z,17.78
2017-08-29T06:17:43.514Z,17.7
2017-08-29T06:18:42.861Z,17.78
2017-08-29T06:19:43.507Z,17.78
2017-08-29T06:20:43.165Z,17.81
2017-08-29T06:21:43.150Z,17.91
2017-08-29T06:22:43.145Z,17.92
2017-08-29T06:23:43.181Z,18.02
2017-08-29T06:24:42.797Z,17.97
2017-08-29T06:25:43.442Z,18.07
2017-08-29T06:26:43.434Z,18.06
2017-08-29T06:27:43.092Z,18.15
2017-08-29T06:28:43.077Z,18.25
2017-08-29T06:29:43.069Z,18.29
2017-08-29T06:30:43.376Z,18.22
2017-08-29T06:31:43.047Z,18.36
2017-08-29T06:32:43.362Z,18.29
2017-08-29T06:33:42.711Z,18.39
2017-08-29T06:34:43.018Z,18.43
2017-08-29T06:35:43.009Z,18.39
2017-08-29T06:36:42.998Z,18.47
2017-08-29T06:37:42.986Z,18.52
2017-08-29T06:38:42.979Z,18.57
2017-08-29T06:39:43.014Z,18.68
2017-08-29T06:40:42.962Z,18.59
2017-08-29T06:41:42.951Z,18.64
2017-08-29T06:42:42.625Z,18.64
2017-08-29T06:43:42.931Z,18.72
2017-08-29T06:44:42.917Z,18.74
2017-08-29T06:45:42.915Z,18.8
2017-08-29T06:46:42.577Z,18.84
2017-08-29T06:47:42.573Z,18.79
2017-08-29T06:48:42.889Z,18.86
2017-08-29T06:49:42.553Z,18.86
2017-08-29T06:50:43.186Z,18.99
2017-08-29T06:51:42.852Z,19.02
2017-08-29T06:52:42.522Z,19.05
2017-08-29T06:53:43.219Z,19.17
2017-08-29T06:54:42.831Z,19.18
2017-08-29T06:55:42.820Z,19.33
2017-08-29T06:56:42.484Z,19.33
2017-08-29T06:57:42.796Z,19.43
2017-08-29T06:58:42.786Z,19.4
2017-08-29T06:59:42.776Z,19.47
2017-08-29T07:00:42.769Z,19.53
2017-08-29T07:01:43.078Z,19.5
2017-08-29T07:02:42.754Z,19.65
2017-08-29T07:03:42.418Z,19.7
2017-08-29T07:04:43.054Z,19.75
2017-08-29T07:05:42.720Z,19.86
2017-08-29T07:06:42.714Z,19.84
2017-08-29T07:07:42.701Z,19.94
2017-08-29T07:08:43.014Z,19.97
2017-08-29T07:09:42.362Z,19.95
2017-08-29T07:10:42.809Z,20.16
2017-08-29T07:11:42.998Z,20.18
2017-08-29T07:12:42.672Z,20.2
2017-08-29T07:13:42.651Z,20.3
2017-08-29T07:14:42.638Z,20.41
2017-08-29T07:15:42.958Z,20.43
2017-08-29T07:16:42.625Z,20.39
2017-08-29T07:17:42.932Z,20.49
2017-08-29T07:18:42.924Z,20.54
2017-08-29T07:19:42.919Z,20.51
2017-08-29T07:20:42.588Z,20.59
2017-08-29T07:21:42.581Z,20.58
2017-08-29T07:22:42.885Z,20.66
2017-08-29T07:23:42.236Z,20.72
2017-08-29T07:24:42.871Z,20.79
2017-08-29T07:25:42.550Z,20.84
2017-08-29T07:26:42.216Z,20.84
2017-08-29T07:27:42.204Z,20.91
2017-08-29T07:28:42.510Z,20.96
2017-08-29T07:29:42.505Z,20.99
2017-08-29T07:30:42.815Z,21.11
2017-08-29T07:31:42.488Z,21.14
2017-08-29T07:32:42.503Z,21.09
2017-08-29T07:33:42.471Z,21.21
2017-08-29T07:34:42.460Z,21.24
2017-08-29T07:35:42.462Z,21.24
2017-08-29T07:36:42.768Z,21.29
2017-08-29T07:37:42.761Z,21.38
2017-08-29T07:38:42.108Z,21.35
2017-08-29T07:39:42.470Z,21.53
2017-08-29T07:40:42.412Z,21.59
2017-08-29T07:41:42.724Z,21.53
2017-08-29T07:42:42.717Z,21.66
2017-08-29T07:43:42.711Z,21.67
2017-08-29T07:44:42.389Z,21.79
2017-08-29T07:45:42.693Z,21.81
2017-08-29T07:46:42.684Z,21.91
2017-08-29T07:47:42.679Z,22.01
2017-08-29T07:48:42.677Z,22.07
2017-08-29T07:49:42.017Z,22.09
2017-08-29T07:50:42.064Z,22.16
2017-08-29T07:51:42.322Z,22.27
2017-08-29T07:52:42.644Z,22.25
2017-08-29T07:53:42.308Z,22.25
2017-08-29T07:54:42.302Z,22.37
2017-08-29T07:55:42.613Z,22.37
2017-08-29T07:56:42.296Z,22.41
2017-08-29T07:57:42.277Z,22.52
2017-08-29T07:58:41.949Z,22.44
2017-08-29T07:59:42.579Z,22.59
2017-08-29T08:00:42.276Z,22.57
2017-08-29T08:01:41.936Z,22.75
2017-08-29T08:02:41.926Z,22.75
2017-08-29T08:03:42.572Z,22.83
2017-08-29T08:04:42.745Z,22.82
2017-08-29T08:05:42.214Z,22.9
2017-08-29T08:06:42.207Z,22.86
2017-08-29T08:07:42.519Z,22.92
2017-08-29T08:08:42.515Z,22.96
2017-08-29T08:09:42.516Z,23.11
2017-08-29T08:10:41.856Z,23.22
2017-08-29T08:11:42.166Z,23.15
2017-08-29T08:12:42.186Z,23.22
2017-08-29T08:13:42.162Z,23.24
2017-08-29T08:14:42.149Z,23.27
2017-08-29T08:15:41.821Z,23.26
2017-08-29T08:16:42.133Z,23.43
2017-08-29T08:17:42.452Z,23.5
2017-08-29T08:18:42.441Z,23.75
2017-08-29T08:19:42.113Z,24.2
2017-08-29T08:20:42.430Z,24.49
2017-08-29T08:21:42.113Z,24.54
2017-08-29T08:22:42.414Z,24.5
2017-08-29T08:23:41.775Z,24.45
2017-08-29T08:24:42.405Z,24.49
2017-08-29T08:25:42.393Z,24.53
2017-08-29T08:26:42.068Z,24.67
2017-08-29T08:27:42.061Z,24.95
2017-08-29T08:28:42.056Z,25.07
2017-08-29T08:29:41.798Z,25.28
2017-08-29T08:30:42.040Z,25.5
2017-08-29T08:31:42.364Z,25.49
2017-08-29T08:32:41.707Z,25.44
2017-08-29T08:33:41.749Z,25.42
2017-08-29T08:34:42.018Z,25.57
2017-08-29T08:35:42.011Z,25.71
2017-08-29T08:36:42.010Z,25.71
2017-08-29T08:37:41.998Z,25.61
2017-08-29T08:38:42.017Z,25.49
2017-08-29T08:39:41.992Z,25.46
2017-08-29T08:40:42.294Z,25.34
2017-08-29T08:41:42.295Z,25.22
2017-08-29T08:42:41.964Z,25.19
2017-08-29T08:43:42.281Z,25.1
2017-08-29T08:44:41.954Z,25.1
2017-08-29T08:45:42.270Z,25.02
2017-08-29T08:46:41.942Z,25.05
2017-08-29T08:47:42.252Z,25.05
2017-08-29T08:48:41.936Z,25.05
2017-08-29T08:49:41.948Z,25.01
2017-08-29T08:50:41.937Z,25.01
2017-08-29T08:51:42.250Z,24.94
2017-08-29T08:52:41.910Z,24.91
2017-08-29T08:53:41.905Z,24.98
2017-08-29T08:54:41.951Z,24.98
2017-08-29T08:55:41.573Z,24.98
2017-08-29T08:56:41.563Z,24.98
2017-08-29T08:57:41.873Z,24.95
2017-08-29T08:58:41.868Z,25.01
2017-08-29T08:59:41.866Z,25
2017-08-29T09:00:41.535Z,25.02
2017-08-29T09:01:42.172Z,25.01
2017-08-29T09:02:41.857Z,25.05
2017-08-29T09:03:41.847Z,25
2017-08-29T09:04:41.520Z,25
2017-08-29T09:05:41.829Z,25.06
2017-08-29T09:06:41.832Z,25.01
2017-08-29T09:07:41.505Z,25.06
2017-08-29T09:08:41.819Z,24.95
2017-08-29T09:09:42.129Z,25.02
2017-08-29T09:10:41.480Z,25.02
2017-08-29T09:11:42.113Z,25.12
2017-08-29T09:12:41.793Z,25.16
2017-08-29T09:13:41.785Z,25.25
2017-08-29T09:14:41.460Z,25.16
2017-08-29T09:15:42.113Z,25.25
2017-08-29T09:16:41.771Z,25.2
2017-08-29T09:17:41.766Z,25.22
2017-08-29T09:18:41.439Z,25.25
2017-08-29T09:19:41.750Z,25.3
2017-08-29T09:20:42.071Z,25.32
2017-08-29T09:21:42.083Z,25.3
2017-08-29T09:22:41.736Z,25.39
2017-08-29T09:23:42.054Z,25.42
2017-08-29T09:24:41.735Z,25.44
2017-08-29T09:25:42.049Z,25.57
2017-08-29T09:26:42.040Z,25.56
2017-08-29T09:27:41.711Z,25.68
2017-08-29T09:28:41.382Z,25.82
2017-08-29T09:29:41.702Z,25.86
2017-08-29T09:30:41.693Z,25.89
2017-08-29T09:31:41.690Z,25.98
2017-08-29T09:32:41.683Z,25.87
2017-08-29T09:33:41.994Z,25.99
2017-08-29T09:34:41.673Z,25.94
2017-08-29T09:35:42.037Z,25.9
2017-08-29T09:36:41.978Z,25.93
2017-08-29T09:37:41.333Z,25.99
2017-08-29T09:38:41.973Z,26.02
2017-08-29T09:39:41.971Z,25.94
2017-08-29T09:40:41.639Z,25.99
2017-08-29T09:41:41.966Z,26.05
2017-08-29T09:42:41.313Z,26.08
2017-08-29T09:43:41.961Z,26.09
2017-08-29T09:44:41.302Z,26.08
2017-08-29T09:45:41.616Z,26.05
2017-08-29T09:46:41.288Z,26.15
2017-08-29T09:47:41.925Z,26.12
2017-08-29T09:48:41.610Z,26.09
2017-08-29T09:49:41.276Z,26.09
2017-08-29T09:50:41.622Z,26.09
2017-08-29T09:51:41.585Z,26.15
2017-08-29T09:52:41.585Z,26.27
2017-08-29T09:53:41.575Z,26.25
2017-08-29T09:54:41.571Z,26.32
2017-08-29T09:55:41.568Z,26.35
2017-08-29T09:56:41.237Z,26.36
2017-08-29T09:57:41.555Z,26.39
2017-08-29T09:58:41.873Z,26.52
2017-08-29T09:59:41.229Z,26.58
2017-08-29T10:00:41.585Z,26.57
2017-08-29T10:01:41.211Z,26.59
2017-08-29T10:02:41.534Z,26.58
2017-08-29T10:03:41.539Z,26.68
2017-08-29T10:04:41.404Z,26.73
2017-08-29T10:05:41.246Z,26.76
2017-08-29T10:06:41.517Z,26.79
2017-08-29T10:07:41.506Z,26.77
2017-08-29T10:08:41.821Z,26.73
2017-08-29T10:09:41.821Z,26.73
2017-08-29T10:10:41.502Z,26.67
2017-08-29T10:11:41.166Z,26.74
2017-08-29T10:12:41.162Z,26.77
2017-08-29T10:13:41.166Z,26.77
2017-08-29T10:14:41.473Z,26.73
2017-08-29T10:15:41.147Z,26.72
2017-08-29T10:16:41.482Z,26.69
2017-08-29T10:17:41.778Z,26.72
2017-08-29T10:18:41.780Z,26.77
2017-08-29T10:19:41.448Z,26.76
2017-08-29T10:20:41.125Z,26.79
2017-08-29T10:21:41.770Z,26.76
2017-08-29T10:22:41.435Z,26.81
2017-08-29T10:23:41.756Z,26.73
2017-08-29T10:24:41.104Z,26.84
2017-08-29T10:25:41.099Z,27.01
2017-08-29T10:26:41.417Z,27.04
2017-08-29T10:27:41.409Z,27.11
2017-08-29T10:28:41.738Z,27.09
2017-08-29T10:29:41.409Z,27.13
2017-08-29T10:30:41.076Z,27.21
2017-08-29T10:31:41.399Z,27.19
2017-08-29T10:32:41.716Z,27.23
2017-08-29T10:33:41.711Z,27.28
2017-08-29T10:34:41.065Z,27.32
2017-08-29T10:35:41.053Z,27.47
2017-08-29T10:36:41.380Z,27.53
2017-08-29T10:37:41.694Z,27.61
2017-08-29T10:38:41.692Z,27.64
2017-08-29T10:39:41.686Z,27.69
2017-08-29T10:40:41.366Z,27.69
2017-08-29T10:41:41.350Z,27.79
2017-08-29T10:42:41.668Z,27.79
2017-08-29T10:43:41.336Z,27.82
2017-08-29T10:44:41.015Z,27.8
2017-08-29T10:45:41.012Z,27.77
2017-08-29T10:46:41.010Z,27.91
2017-08-29T10:47:41.656Z,27.86
2017-08-29T10:48:41.329Z,27.89
2017-08-29T10:49:41.321Z,27.89
2017-08-29T10:50:40.990Z,27.88
2017-08-29T10:51:41.632Z,28.03
2017-08-29T10:52:41.308Z,28.17
2017-08-29T10:53:40.993Z,28.17
2017-08-29T10:54:40.979Z,28.29
2017-08-29T10:55:41.614Z,28.36
2017-08-29T10:56:41.287Z,28.41
2017-08-29T10:57:41.614Z,28.36
2017-08-29T10:58:41.289Z,28.44
2017-08-29T10:59:41.290Z,28.44
2017-08-29T11:00:41.600Z,28.51
2017-08-29T11:01:41.290Z,28.6
2017-08-29T11:02:40.955Z,28.69
2017-08-29T11:03:40.956Z,28.7
2017-08-29T11:04:41.264Z,28.73
2017-08-29T11:05:41.259Z,28.87
2017-08-29T11:06:41.259Z,28.91
2017-08-29T11:07:41.259Z,29.04
2017-08-29T11:08:41.257Z,29.06
2017-08-29T11:09:41.255Z,29.18
2017-08-29T11:10:41.258Z,29.25
2017-08-29T11:11:41.568Z,29.44
2017-08-29T11:12:41.244Z,29.71
2017-08-29T11:13:41.244Z,29.74
2017-08-29T11:14:41.242Z,30.03
2017-08-29T11:15:41.564Z,30.26
2017-08-29T11:16:41.288Z,30.36
2017-08-29T11:17:41.244Z,30.64
2017-08-29T11:18:41.560Z,30.59
2017-08-29T11:19:41.563Z,30.75
2017-08-29T11:20:41.241Z,30.86
2017-08-29T11:21:41.244Z,30.78
2017-08-29T11:22:40.919Z,30.8
2017-08-29T11:23:41.235Z,30.81
2017-08-29T11:24:41.242Z,30.96
2017-08-29T11:25:40.923Z,31.12
2017-08-29T11:26:41.281Z,31.31
2017-08-29T11:27:40.919Z,31.57
2017-08-29T11:28:41.247Z,31.87
2017-08-29T11:29:41.243Z,32.15
2017-08-29T11:30:41.245Z,32.37
2017-08-29T11:31:41.251Z,32.35
2017-08-29T11:32:41.569Z,32.58
2017-08-29T11:33:41.256Z,32.73
2017-08-29T11:34:41.585Z,32.91
2017-08-29T11:35:41.292Z,33.15
2017-08-29T11:36:41.578Z,33.39
2017-08-29T11:37:40.944Z,33.53
2017-08-29T11:38:41.269Z,33.68
2017-08-29T11:39:41.271Z,33.98
2017-08-29T11:40:41.594Z,34.02
2017-08-29T11:41:41.060Z,34.22
2017-08-29T11:42:41.610Z,34.29
2017-08-29T11:43:41.608Z,34.56
2017-08-29T11:44:41.675Z,34.57
2017-08-29T11:45:41.351Z,34.79
2017-08-29T11:46:41.646Z,34.83
2017-08-29T11:47:41.638Z,34.91
2017-08-29T11:48:41.005Z,34.91
2017-08-29T11:49:40.996Z,34.92
2017-08-29T11:50:41.321Z,35.13
2017-08-29T11:51:41.327Z,35.11
2017-08-29T11:52:41.331Z,35.07
2017-08-29T11:53:41.361Z,35.37
2017-08-29T11:54:41.383Z,35.57
2017-08-29T11:55:41.360Z,35.74
2017-08-29T11:56:41.355Z,36.03
2017-08-29T11:57:41.041Z,36.04
2017-08-29T11:58:41.693Z,36.3
2017-08-29T11:59:41.690Z,36.42
2017-08-29T12:00:41.723Z,36.46
2017-08-29T12:01:41.386Z,36.46
2017-08-29T12:02:41.390Z,36.63
2017-08-29T12:03:41.391Z,36.56
2017-08-29T12:04:41.606Z,36.46
2017-08-29T12:05:41.408Z,36.57
2017-08-29T12:06:41.418Z,36.6
2017-08-29T12:07:41.423Z,36.65
2017-08-29T12:08:41.432Z,36.76
2017-08-29T12:09:41.749Z,36.54
2017-08-29T12:10:41.111Z,36.58
2017-08-29T12:11:41.439Z,36.87
2017-08-29T12:12:41.448Z,36.97
2017-08-29T12:13:41.778Z,37.14
2017-08-29T12:14:41.464Z,37.38
2017-08-29T12:15:41.469Z,37.51
2017-08-29T12:16:41.796Z,37.71
2017-08-29T12:17:41.802Z,37.67
2017-08-29T12:18:41.489Z,37.77
2017-08-29T12:19:41.492Z,37.92
2017-08-29T12:20:41.828Z,37.9
2017-08-29T12:21:41.516Z,38.08
2017-08-29T12:22:41.193Z,38.22
2017-08-29T12:23:41.844Z,38.26
2017-08-29T12:24:41.851Z,38.32
2017-08-29T12:25:41.921Z,38.38
2017-08-29T12:26:41.546Z,38.34
2017-08-29T12:27:41.543Z,38.38
2017-08-29T12:28:41.553Z,38.57
2017-08-29T12:29:41.561Z,38.6
2017-08-29T12:30:41.567Z,38.44
2017-08-29T12:31:41.891Z,38.61
2017-08-29T12:32:41.619Z,38.7
2017-08-29T12:33:41.584Z,38.55
2017-08-29T12:34:41.912Z,38.01
2017-08-29T12:35:41.599Z,37.74
2017-08-29T12:36:41.931Z,37.85
2017-08-29T12:37:41.614Z,38.11
2017-08-29T12:38:41.618Z,38.11
2017-08-29T12:39:41.628Z,38.03
2017-08-29T12:40:41.630Z,38.11
2017-08-29T12:41:41.960Z,38.33
2017-08-29T12:42:41.643Z,38.27
2017-08-29T12:43:41.661Z,38.23
2017-08-29T12:44:41.342Z,38.24
2017-08-29T12:45:41.668Z,38.07
2017-08-29T12:46:41.714Z,38.1
2017-08-29T12:47:41.675Z,38.18
2017-08-29T12:48:41.687Z,38.2
2017-08-29T12:49:42.062Z,37.86
2017-08-29T12:50:42.058Z,38.03
2017-08-29T12:51:42.027Z,38.33
2017-08-29T12:52:41.396Z,38.51
2017-08-29T12:53:41.396Z,38.12
2017-08-29T12:54:41.789Z,37.9
2017-08-29T12:55:41.736Z,37.76
2017-08-29T12:56:42.059Z,37.89